createdAt,value
2019-01-24T00:01:04.631Z,99.40
2019-01-24T00:03:37.102Z,99.30
2019-01-24T00:06:09.571Z,99.40
2019-01-24T00:11:38.351Z,99.30
2019-01-24T00:14:10.640Z,99.30
2019-01-24T00:16:43.238Z,99.60
2019-01-24T00:19:16.216Z,99.70
2019-01-24T00:21:49.405Z,99.80
2019-01-24T00:24:21.866Z,99.90
2019-01-24T00:26:54.009Z,99.90
2019-01-24T00:29:26.754Z,99.90
2019-01-24T00:31:59.204Z,99.90
2019-01-24T00:34:33.170Z,99.90
2019-01-24T00:37:06.337Z,99.90
2019-01-24T00:39:38.563Z,99.90
2019-01-24T00:42:11.129Z,99.90
2019-01-24T00:47:14.456Z,99.90
2019-01-24T00:49:47.096Z,99.90
2019-01-24T00:52:19.458Z,99.90
2019-01-24T00:54:51.567Z,99.90
2019-01-24T00:57:24.041Z,99.90
2019-01-24T00:59:56.348Z,99.90
2019-01-24T01:02:28.532Z,99.90
2019-01-24T01:07:36.990Z,99.90
2019-01-24T01:10:09.557Z,99.90
2019-01-24T01:12:42.605Z,99.90
2019-01-24T01:15:17.108Z,99.80
2019-01-24T01:17:49.702Z,99.90
2019-01-24T01:20:23.910Z,99.90
2019-01-24T01:22:56.579Z,99.90
2019-01-24T01:25:33.182Z,99.90
2019-01-24T01:28:05.688Z,99.90
2019-01-24T01:30:38.319Z,99.90
2019-01-24T01:33:10.820Z,99.90
2019-01-24T01:35:43.280Z,99.90
2019-01-24T01:38:17.418Z,99.90
2019-01-24T01:40:50.248Z,99.90
2019-01-24T01:43:22.836Z,99.90
2019-01-24T01:46:30.427Z,99.90
2019-01-24T01:51:58.625Z,99.90
2019-01-24T01:57:26.539Z,99.90
2019-01-24T01:59:59.294Z,99.90
2019-01-24T02:02:31.569Z,99.90
2019-01-24T02:05:04.018Z,99.90
2019-01-24T02:07:36.722Z,99.90
2019-01-24T02:10:12.657Z,99.90
2019-01-24T02:12:45.031Z,99.90
2019-01-24T02:15:18.078Z,99.90
2019-01-24T02:17:50.743Z,99.90
2019-01-24T02:20:24.258Z,99.90
2019-01-24T02:22:56.843Z,99.90
2019-01-24T02:25:30.234Z,99.90
2019-01-24T02:28:02.884Z,99.90
2019-01-24T02:30:35.213Z,99.90
2019-01-24T02:33:07.901Z,99.90
2019-01-24T02:35:40.232Z,99.90
2019-01-24T02:38:12.805Z,99.90
2019-01-24T02:40:45.050Z,99.60
2019-01-24T02:43:17.538Z,99.30
2019-01-24T02:45:50.054Z,99.40
2019-01-24T02:50:58.193Z,99.60
2019-01-24T02:53:30.603Z,99.80
2019-01-24T02:56:03.276Z,99.90
2019-01-24T02:58:35.638Z,99.90
2019-01-24T03:01:07.935Z,99.90
2019-01-24T03:03:40.467Z,99.90
2019-01-24T03:06:12.921Z,99.90
2019-01-24T03:08:45.127Z,99.80
2019-01-24T03:11:18.119Z,99.90
2019-01-24T03:13:51.172Z,99.90
2019-01-24T03:16:23.695Z,99.90
2019-01-24T03:18:56.073Z,99.90
2019-01-24T03:24:24.441Z,99.70
2019-01-24T03:26:57.031Z,99.90
2019-01-24T03:29:29.412Z,99.90
2019-01-24T03:32:02.122Z,99.90
2019-01-24T03:34:34.977Z,99.90
2019-01-24T03:37:08.275Z,99.90
2019-01-24T03:42:16.424Z,99.60
2019-01-24T03:44:49.263Z,99.60
2019-01-24T03:47:22.042Z,99.90
2019-01-24T03:49:54.548Z,99.90
2019-01-24T03:52:26.907Z,99.90
2019-01-24T03:54:59.417Z,99.90
2019-01-24T03:57:31.711Z,99.90
2019-01-24T04:00:04.621Z,99.90
2019-01-24T04:02:37.345Z,99.90
2019-01-24T04:05:11.961Z,99.90
2019-01-24T04:07:43.883Z,99.90
2019-01-24T04:10:20.585Z,99.90
2019-01-24T04:12:53.218Z,99.90
2019-01-24T04:15:27.564Z,99.90
2019-01-24T04:18:00.318Z,99.90
2019-01-24T04:20:32.545Z,99.90
2019-01-24T04:23:04.839Z,99.90
2019-01-24T04:25:37.554Z,99.90
2019-01-24T04:28:10.109Z,99.90
2019-01-24T04:30:42.536Z,99.90
2019-01-24T04:33:14.897Z,99.90
2019-01-24T04:35:47.492Z,99.90
2019-01-24T04:38:19.932Z,99.90
2019-01-24T04:40:52.530Z,99.90
2019-01-24T04:43:25.018Z,99.90
2019-01-24T04:45:57.404Z,99.90
2019-01-24T04:51:39.082Z,99.90
2019-01-24T04:54:15.060Z,99.90
2019-01-24T04:56:47.436Z,99.90
2019-01-24T04:59:20.413Z,99.90
2019-01-24T05:01:52.983Z,99.90
2019-01-24T05:04:25.138Z,99.90
2019-01-24T05:06:58.781Z,99.90
2019-01-24T05:09:31.113Z,99.90
2019-01-24T05:12:03.351Z,99.90
2019-01-24T05:14:35.695Z,99.90
2019-01-24T05:17:08.335Z,99.90
2019-01-24T05:19:40.367Z,99.90
2019-01-24T05:22:12.676Z,99.90
2019-01-24T05:24:44.846Z,99.90
2019-01-24T05:27:17.213Z,99.90
2019-01-24T05:29:49.488Z,99.90
2019-01-24T05:32:21.932Z,99.90
2019-01-24T05:34:54.413Z,99.90
2019-01-24T05:37:26.522Z,99.90
2019-01-24T05:39:58.928Z,99.90
2019-01-24T05:42:31.286Z,99.90
2019-01-24T05:45:03.627Z,99.90
2019-01-24T05:47:54.757Z,99.90
2019-01-24T05:50:26.993Z,99.90
2019-01-24T05:52:59.613Z,99.90
2019-01-24T05:55:32.331Z,99.90
2019-01-24T05:58:04.796Z,99.90
2019-01-24T06:00:39.932Z,99.90
2019-01-24T06:03:12.256Z,99.90
2019-01-24T06:05:44.407Z,99.90
2019-01-24T06:08:17.005Z,99.90
2019-01-24T06:10:49.275Z,99.90
2019-01-24T06:13:22.172Z,99.90
2019-01-24T06:15:54.329Z,99.90
2019-01-24T06:18:26.590Z,99.90
2019-01-24T06:20:59.132Z,99.90
2019-01-24T06:23:31.519Z,99.90
2019-01-24T06:26:03.955Z,99.90
2019-01-24T06:28:36.105Z,99.90
2019-01-24T06:31:08.204Z,99.90
2019-01-24T06:33:40.585Z,99.90
2019-01-24T06:36:12.922Z,99.90
2019-01-24T06:38:45.585Z,99.90
2019-01-24T06:41:18.288Z,99.90
2019-01-24T06:43:50.841Z,99.90
2019-01-24T06:46:23.092Z,99.90
2019-01-24T06:48:55.604Z,99.90
2019-01-24T06:51:28.164Z,99.90
2019-01-24T06:54:00.417Z,99.90
2019-01-24T06:56:33.025Z,99.90
2019-01-24T06:59:05.241Z,99.90
2019-01-24T07:01:38.390Z,99.90
2019-01-24T07:04:12.908Z,99.90
2019-01-24T07:06:45.510Z,99.90
2019-01-24T07:09:18.279Z,99.90
2019-01-24T07:11:50.775Z,99.90
2019-01-24T07:14:23.005Z,99.90
2019-01-24T07:16:55.432Z,99.90
2019-01-24T07:19:27.788Z,99.90
2019-01-24T07:22:00.075Z,99.90
2019-01-24T07:24:32.581Z,99.90
2019-01-24T07:27:04.865Z,99.90
2019-01-24T07:29:37.370Z,99.90
2019-01-24T07:32:09.639Z,99.90
2019-01-24T07:34:42.091Z,99.90
2019-01-24T07:37:14.349Z,99.90
2019-01-24T07:39:46.636Z,99.90
2019-01-24T07:42:19.509Z,99.90
2019-01-24T07:44:52.438Z,99.90
2019-01-24T07:47:24.606Z,99.90
2019-01-24T07:49:57.157Z,99.90
2019-01-24T07:52:29.653Z,99.90
2019-01-24T07:55:02.398Z,99.90
2019-01-24T07:57:34.683Z,99.90
2019-01-24T08:00:09.833Z,99.90
2019-01-24T08:02:42.254Z,99.90
2019-01-24T08:05:15.098Z,99.90
2019-01-24T08:07:47.309Z,99.90
2019-01-24T08:10:20.658Z,99.90
2019-01-24T08:12:53.540Z,99.90
2019-01-24T08:15:26.138Z,99.90
2019-01-24T08:17:58.259Z,99.90
2019-01-24T08:20:31.265Z,99.90
2019-01-24T08:23:03.651Z,99.90
2019-01-24T08:25:36.170Z,99.90
2019-01-24T08:28:09.002Z,99.90
2019-01-24T08:30:41.367Z,99.90
2019-01-24T08:33:13.708Z,99.90
2019-01-24T08:35:46.100Z,99.90
2019-01-24T08:38:18.692Z,99.90
2019-01-24T08:40:51.723Z,99.90
2019-01-24T08:43:24.117Z,99.90
2019-01-24T08:45:56.658Z,99.90
2019-01-24T08:48:28.881Z,99.90
2019-01-24T08:51:01.142Z,99.90
2019-01-24T08:53:33.397Z,99.90
2019-01-24T08:56:05.798Z,99.90
2019-01-24T08:58:38.747Z,99.90
2019-01-24T09:01:14.399Z,99.90
2019-01-24T09:03:46.645Z,99.90
2019-01-24T09:06:22.533Z,99.90
2019-01-24T09:08:53.226Z,99.90
2019-01-24T09:11:25.575Z,99.90
2019-01-24T09:13:57.837Z,99.90
2019-01-24T09:16:30.083Z,99.90
2019-01-24T09:19:02.273Z,99.90
2019-01-24T09:21:34.472Z,99.90
2019-01-24T09:24:06.581Z,99.90
2019-01-24T09:26:38.911Z,99.90
2019-01-24T09:29:11.160Z,99.90
2019-01-24T09:31:43.399Z,99.90
2019-01-24T09:34:15.774Z,99.90
2019-01-24T09:36:48.090Z,99.90
2019-01-24T09:39:20.297Z,99.90
2019-01-24T09:41:52.680Z,99.90
2019-01-24T09:44:24.973Z,99.90
2019-01-24T09:46:57.633Z,99.90
2019-01-24T09:49:30.042Z,99.90
2019-01-24T09:52:02.397Z,99.90
2019-01-24T09:54:34.839Z,99.90
2019-01-24T09:57:07.165Z,99.90
2019-01-24T09:59:39.749Z,99.90
2019-01-24T10:02:12.679Z,99.90
2019-01-24T10:04:45.252Z,99.90
2019-01-24T10:07:17.817Z,99.90
2019-01-24T10:09:50.651Z,99.90
2019-01-24T10:12:23.374Z,99.90
2019-01-24T10:14:55.816Z,99.90
2019-01-24T10:17:28.254Z,99.90
2019-01-24T10:20:00.430Z,99.90
2019-01-24T10:22:33.025Z,99.90
2019-01-24T10:25:05.632Z,99.90
2019-01-24T10:27:38.652Z,99.90
2019-01-24T10:30:12.461Z,99.90
2019-01-24T10:32:44.835Z,99.90
2019-01-24T10:35:17.116Z,99.90
2019-01-24T10:37:49.837Z,99.90
2019-01-24T10:40:24.441Z,99.90
2019-01-24T10:42:57.037Z,99.90
2019-01-24T10:45:29.327Z,99.90
2019-01-24T10:48:01.439Z,99.90
2019-01-24T10:50:35.238Z,99.90
2019-01-24T10:53:08.028Z,99.90
2019-01-24T10:55:40.177Z,99.90
2019-01-24T10:58:12.442Z,99.90
2019-01-24T11:00:46.731Z,99.90
2019-01-24T11:03:20.829Z,99.90
2019-01-24T11:05:53.308Z,99.90
2019-01-24T11:08:25.682Z,99.90
2019-01-24T11:10:57.861Z,99.90
2019-01-24T11:13:30.151Z,99.90
2019-01-24T11:16:02.677Z,99.90
2019-01-24T11:18:35.383Z,99.90
2019-01-24T11:21:07.524Z,99.90
2019-01-24T11:23:39.581Z,99.90
2019-01-24T11:26:11.943Z,99.90
2019-01-24T11:28:44.344Z,99.90
2019-01-24T11:31:16.369Z,99.90
2019-01-24T11:33:48.890Z,99.90
2019-01-24T11:36:21.052Z,99.90
2019-01-24T11:38:53.407Z,99.90
2019-01-24T11:41:25.834Z,99.90
2019-01-24T11:43:58.320Z,99.90
2019-01-24T11:46:30.652Z,99.90
2019-01-24T11:49:02.890Z,99.90
2019-01-24T11:51:35.249Z,99.90
2019-01-24T11:54:07.705Z,99.90
2019-01-24T11:56:39.989Z,99.90
2019-01-24T11:59:12.274Z,99.90
2019-01-24T12:01:45.208Z,99.90
2019-01-24T12:04:17.957Z,99.90
2019-01-24T12:06:50.414Z,99.90
2019-01-24T12:09:23.019Z,99.90
2019-01-24T12:11:55.267Z,99.90
2019-01-24T12:14:27.828Z,99.90
2019-01-24T12:17:00.197Z,99.90
2019-01-24T12:19:32.778Z,99.90
2019-01-24T12:22:05.062Z,99.90
2019-01-24T12:24:37.657Z,99.90
2019-01-24T12:27:09.995Z,99.90
2019-01-24T12:29:42.208Z,99.90
2019-01-24T12:32:14.708Z,99.90
2019-01-24T12:34:47.224Z,99.90
2019-01-24T12:37:19.613Z,99.90
2019-01-24T12:39:51.963Z,99.90
2019-01-24T12:42:24.404Z,99.90
2019-01-24T12:44:56.718Z,99.90
2019-01-24T12:47:28.861Z,99.90
2019-01-24T12:50:01.426Z,99.90
2019-01-24T12:52:33.818Z,99.90
2019-01-24T12:55:06.910Z,99.90
2019-01-24T12:57:39.335Z,99.90
2019-01-24T13:00:15.767Z,99.90
2019-01-24T13:02:48.165Z,99.90
2019-01-24T13:05:21.018Z,99.90
2019-01-24T13:07:53.475Z,99.90
2019-01-24T13:10:26.945Z,99.90
2019-01-24T13:12:59.397Z,99.90
2019-01-24T13:15:33.365Z,99.90
2019-01-24T13:18:06.211Z,99.90
2019-01-24T13:20:39.054Z,99.90
2019-01-24T13:23:11.305Z,99.90
2019-01-24T13:25:44.105Z,99.90
2019-01-24T13:28:16.775Z,99.90
2019-01-24T13:30:49.124Z,99.90
2019-01-24T13:33:21.688Z,99.90
2019-01-24T13:35:54.400Z,99.90
2019-01-24T13:38:26.501Z,99.90
2019-01-24T13:40:58.968Z,99.90
2019-01-24T13:43:31.186Z,99.90
2019-01-24T13:46:03.317Z,99.90
2019-01-24T13:48:35.791Z,99.90
2019-01-24T13:51:07.945Z,99.90
2019-01-24T13:53:40.751Z,99.90
2019-01-24T13:56:13.304Z,99.90
2019-01-24T13:58:45.557Z,99.90
2019-01-24T14:01:17.920Z,99.90
2019-01-24T14:04:14.963Z,99.90
2019-01-24T14:06:47.672Z,99.90
2019-01-24T14:09:19.876Z,99.90
2019-01-24T14:11:52.648Z,99.90
2019-01-24T14:14:25.193Z,99.90
2019-01-24T14:16:58.180Z,99.90
2019-01-24T14:19:30.374Z,99.90
2019-01-24T14:22:03.071Z,99.90
2019-01-24T14:24:35.555Z,99.90
2019-01-24T14:27:09.113Z,99.90
2019-01-24T14:29:41.444Z,99.90
2019-01-24T14:32:13.794Z,99.90
2019-01-24T14:34:46.181Z,99.90
2019-01-24T14:37:18.903Z,99.90
2019-01-24T14:39:51.758Z,99.90
2019-01-24T14:42:24.075Z,99.90
2019-01-24T14:44:57.191Z,99.90
2019-01-24T14:47:29.475Z,99.90
2019-01-24T14:50:01.878Z,99.90
2019-01-24T14:52:34.355Z,99.90
2019-01-24T14:55:07.015Z,99.90
2019-01-24T14:57:39.458Z,99.90
2019-01-24T15:00:17.343Z,99.90
2019-01-24T15:02:49.616Z,99.90
2019-01-24T15:05:22.161Z,99.90
2019-01-24T15:07:55.010Z,99.90
2019-01-24T15:10:27.935Z,99.90
2019-01-24T15:13:00.427Z,99.90
2019-01-24T15:15:33.277Z,99.90
2019-01-24T15:18:05.868Z,99.90
2019-01-24T15:20:38.313Z,99.90
2019-01-24T15:23:11.151Z,99.90
2019-01-24T15:25:43.480Z,99.90
2019-01-24T15:28:16.084Z,99.90
2019-01-24T15:30:48.483Z,99.90
2019-01-24T15:33:20.896Z,99.90
2019-01-24T15:35:53.314Z,99.90
2019-01-24T15:38:25.575Z,99.90
2019-01-24T15:40:58.235Z,99.90
2019-01-24T15:46:06.436Z,99.90
2019-01-24T15:48:42.450Z,99.90
2019-01-24T15:51:12.945Z,99.90
2019-01-24T15:53:45.099Z,99.90
2019-01-24T15:56:17.812Z,99.90
2019-01-24T15:58:50.530Z,99.90
2019-01-24T16:01:22.841Z,99.90
2019-01-24T16:03:55.458Z,99.90
2019-01-24T16:06:28.059Z,99.90
2019-01-24T16:09:00.118Z,99.90
2019-01-24T16:14:08.202Z,99.90
2019-01-24T16:16:40.852Z,99.90
2019-01-24T16:19:31.694Z,99.90
2019-01-24T16:22:03.828Z,99.90
2019-01-24T16:24:36.251Z,99.90
2019-01-24T16:27:08.349Z,99.90
2019-01-24T16:29:40.497Z,99.90
2019-01-24T16:32:13.183Z,99.90
2019-01-24T16:34:45.272Z,99.90
2019-01-24T16:37:18.169Z,99.90
2019-01-24T16:39:50.455Z,99.90
2019-01-24T16:42:22.724Z,99.90
2019-01-24T16:44:55.112Z,99.90
2019-01-24T16:47:27.973Z,99.90
2019-01-24T16:50:00.894Z,99.90
2019-01-24T16:52:33.165Z,99.90
2019-01-24T16:57:59.765Z,99.90
2019-01-24T17:00:41.596Z,99.90
2019-01-24T17:03:13.844Z,99.90
2019-01-24T17:05:46.704Z,99.90
2019-01-24T17:08:18.989Z,99.90
2019-01-24T17:10:51.175Z,99.90
2019-01-24T17:13:23.885Z,99.90
2019-01-24T17:15:56.192Z,99.90
2019-01-24T17:18:28.507Z,99.90
2019-01-24T17:21:00.866Z,99.90
2019-01-24T17:23:33.081Z,99.90
2019-01-24T17:26:05.943Z,99.90
2019-01-24T17:28:38.370Z,99.90
2019-01-24T17:31:10.494Z,99.90
2019-01-24T17:33:43.365Z,99.90
2019-01-24T17:36:15.822Z,99.90
2019-01-24T17:38:48.225Z,99.90
2019-01-24T17:41:20.609Z,99.90
2019-01-24T17:43:53.560Z,99.90
2019-01-24T17:46:25.980Z,99.90
2019-01-24T17:48:58.506Z,99.90
2019-01-24T17:54:19.373Z,99.90
2019-01-24T17:56:51.398Z,99.90
2019-01-24T17:59:24.341Z,99.90
2019-01-24T18:01:57.193Z,99.90
2019-01-24T18:04:29.443Z,99.90
2019-01-24T18:07:01.806Z,99.90
2019-01-24T18:09:34.058Z,99.90
2019-01-24T18:12:06.233Z,99.90
2019-01-24T18:14:38.557Z,99.90
2019-01-24T18:17:10.992Z,99.90
2019-01-24T18:19:43.524Z,99.90
2019-01-24T18:22:16.215Z,99.90
2019-01-24T18:24:48.523Z,99.90
2019-01-24T18:27:20.770Z,99.90
2019-01-24T18:29:53.133Z,99.90
2019-01-24T18:32:25.356Z,99.90
2019-01-24T18:34:58.087Z,99.90
2019-01-24T18:37:30.288Z,99.90
2019-01-24T18:40:02.803Z,99.90
2019-01-24T18:42:35.642Z,99.90
2019-01-24T18:45:09.921Z,99.90
2019-01-24T18:47:42.761Z,99.90
2019-01-24T18:50:18.342Z,99.90
2019-01-24T18:52:50.898Z,99.90
2019-01-24T18:55:23.523Z,99.90
2019-01-24T18:57:56.369Z,99.90
2019-01-24T19:00:37.812Z,99.90
2019-01-24T19:03:11.112Z,99.90
2019-01-24T19:05:44.287Z,99.90
2019-01-24T19:08:17.190Z,99.90
2019-01-24T19:10:49.535Z,99.90
2019-01-24T19:13:21.712Z,99.90
2019-01-24T19:15:54.488Z,99.90
2019-01-24T19:18:26.834Z,99.90
2019-01-24T19:20:59.070Z,99.90
2019-01-24T19:23:31.148Z,99.90
2019-01-24T19:26:03.582Z,99.90
2019-01-24T19:28:36.036Z,99.70
2019-01-24T19:31:08.528Z,99.60
2019-01-24T19:33:40.789Z,99.50
2019-01-24T19:36:13.270Z,99.30
2019-01-24T19:38:45.751Z,99.00
2019-01-24T19:41:19.407Z,98.90
2019-01-24T19:43:51.656Z,98.90
2019-01-24T19:46:24.145Z,99.40
2019-01-24T19:48:56.556Z,98.80
2019-01-24T19:51:29.147Z,98.80
2019-01-24T19:54:05.013Z,98.90
2019-01-24T19:56:38.134Z,99.10
2019-01-24T19:59:10.726Z,99.00
2019-01-24T20:01:43.546Z,98.90
2019-01-24T20:04:15.866Z,98.50
2019-01-24T20:06:49.246Z,99.20
2019-01-24T20:09:21.668Z,98.40
2019-01-24T20:11:54.029Z,98.20
2019-01-24T20:14:26.721Z,98.80
2019-01-24T20:16:59.011Z,98.90
2019-01-24T20:19:31.329Z,98.30
2019-01-24T20:22:03.750Z,98.70
2019-01-24T20:24:36.214Z,97.70
2019-01-24T20:27:09.328Z,97.90
2019-01-24T20:29:42.186Z,98.30
2019-01-24T20:32:14.948Z,98.40
2019-01-24T20:34:47.509Z,98.20
2019-01-24T20:37:20.088Z,97.80
2019-01-24T20:39:52.853Z,97.80
2019-01-24T20:42:25.166Z,98.30
2019-01-24T20:44:57.823Z,98.80
2019-01-24T20:47:30.358Z,98.80
2019-01-24T20:50:02.826Z,98.60
2019-01-24T20:52:35.437Z,98.60
2019-01-24T20:55:09.937Z,98.20
2019-01-24T20:57:42.339Z,98.10
2019-01-24T21:00:21.849Z,97.90
2019-01-24T21:02:54.387Z,98.00
2019-01-24T21:05:26.915Z,97.80
2019-01-24T21:07:59.387Z,97.60
2019-01-24T21:10:31.820Z,98.10
2019-01-24T21:13:04.235Z,98.30
2019-01-24T21:15:37.023Z,97.80
2019-01-24T21:18:09.563Z,97.60
2019-01-24T21:20:41.899Z,97.60
2019-01-24T21:23:14.878Z,97.70
2019-01-24T21:25:47.778Z,97.90
2019-01-24T21:28:20.277Z,97.80
2019-01-24T21:30:53.031Z,98.30
2019-01-24T21:33:25.681Z,98.20
2019-01-24T21:35:58.208Z,97.90
2019-01-24T21:38:30.600Z,98.00
2019-01-24T21:41:03.362Z,97.50
2019-01-24T21:43:35.795Z,97.80
2019-01-24T21:46:08.326Z,97.20
2019-01-24T21:48:40.597Z,97.00
2019-01-24T21:51:13.048Z,96.60
2019-01-24T21:53:45.821Z,95.50
2019-01-24T21:56:19.022Z,94.40
2019-01-24T21:58:51.509Z,94.10
2019-01-24T22:01:24.184Z,94.50
2019-01-24T22:03:56.625Z,94.40
2019-01-24T22:06:29.023Z,94.30
2019-01-24T22:09:01.371Z,93.80
2019-01-24T22:11:33.674Z,94.60
2019-01-24T22:14:06.277Z,95.10
2019-01-24T22:16:38.559Z,95.00
2019-01-24T22:19:10.808Z,93.60
2019-01-24T22:21:43.409Z,92.60
2019-01-24T22:24:15.770Z,92.30
2019-01-24T22:26:48.273Z,92.60
2019-01-24T22:29:20.745Z,93.40
2019-01-24T22:31:52.947Z,92.80
2019-01-24T22:43:03.947Z,92.90
2019-01-24T22:45:38.332Z,92.70
2019-01-24T22:48:10.624Z,92.90
2019-01-24T22:50:43.511Z,92.20
2019-01-24T22:53:29.623Z,92.10
2019-01-24T22:56:13.050Z,92.70
2019-01-24T22:58:45.973Z,91.90
2019-01-24T23:01:37.137Z,91.50
2019-01-24T23:04:22.284Z,91.50
2019-01-24T23:06:54.909Z,91.60
2019-01-24T23:09:27.469Z,91.90
2019-01-24T23:11:59.945Z,91.90
2019-01-24T23:14:32.431Z,91.50
2019-01-24T23:17:04.763Z,91.20
2019-01-24T23:19:37.259Z,91.70
2019-01-24T23:22:09.797Z,91.70
2019-01-24T23:24:42.233Z,91.80
2019-01-24T23:27:14.875Z,91.60
2019-01-24T23:29:47.222Z,91.60
2019-01-24T23:32:19.965Z,91.90
2019-01-24T23:35:10.382Z,91.30
2019-01-24T23:37:54.539Z,91.10
2019-01-24T23:40:27.689Z,91.40
2019-01-24T23:43:00.609Z,91.30
2019-01-24T23:45:33.445Z,91.40
2019-01-24T23:48:06.300Z,91.50
2019-01-24T23:53:33.351Z,91.60
2019-01-24T23:56:07.033Z,91.80
